Time;durP1;ratioP1;P1;durP2;ratioP2;P2;SDS_P1;SDS_P2;PMS_P1;PMS_P2;Temp;Humidity;BMP_temperature;BMP_pressure;BME280_temperature;BME280_humidity;BME280_pressure;Samples;Min_cycle;Max_cycle;Signal;HPM_P1;HPM_P2
2023/04/29 00:00:41;;;;;;;64.45;12.70;;;;;;;;;;5000686;28;20050;-59
2023/04/29 00:03:08;;;;;;;83.63;13.60;;;;;;;;;;4963874;28;1066535;-60
2023/04/29 00:05:35;;;;;;;164.30;18.75;;;;;;;;;;5000803;28;20061;-61
2023/04/29 00:08:02;;;;;;;57.08;11.77;;;;;;;;;;5002345;28;20476;-57
2023/04/29 00:10:29;;;;;;;70.32;14.35;;;;;;;;;;5002158;28;20069;-59
2023/04/29 00:12:55;;;;;;;121.55;16.95;;;;;;;;;;4998525;28;20042;-62
2023/04/29 00:15:22;;;;;;;61.53;12.98;;;;;;;;;;5005539;28;20041;-62
2023/04/29 00:17:49;;;;;;;87.75;14.13;;;;;;;;;;5003582;28;20045;-61
2023/04/29 00:20:16;;;;;;;151.38;19.05;;;;;;;;;;5001165;28;20392;-54
2023/04/29 00:22:43;;;;;;;77.88;13.82;;;;;;;;;;4999704;28;20514;-55
2023/04/29 00:25:11;;;;;;;125.70;16.55;;;;;;;;;;4980138;28;20048;-59
2023/04/29 00:27:38;;;;;;;123.35;16.48;;;;;;;;;;4996847;28;20046;-53
2023/04/29 00:30:06;;;;;;;64.88;12.98;;;;;;;;;;4983346;28;20117;-59
2023/04/29 00:32:32;;;;;;;63.03;13.02;;;;;;;;;;5001268;28;20038;-55
2023/04/29 00:34:59;;;;;;;107.63;15.15;;;;;;;;;;5000728;28;20055;-59
2023/04/29 00:37:25;;;;;;;74.68;13.35;;;;;;;;;;4986019;28;20475;-60
2023/04/29 00:39:52;;;;;;;79.95;13.10;;;;;;;;;;5016832;28;20100;-58
2023/04/29 00:42:19;;;;;;;143.68;17.73;;;;;;;;;;4982383;28;20107;-59
2023/04/29 00:44:45;;;;;;;72.50;12.88;;;;;;;;;;5001516;28;20041;-59
2023/04/29 00:47:12;;;;;;;111.90;16.17;;;;;;;;;;4999168;28;20383;-58
2023/04/29 00:49:39;;;;;;;162.98;18.25;;;;;;;;;;4989845;28;20046;-55
2023/04/29 00:52:07;;;;;;;69.97;12.95;;;;;;;;;;4998767;28;20072;-59
2023/04/29 00:54:34;;;;;;;63.65;11.68;;;;;;;;;;5003448;28;20132;-57
2023/04/29 00:57:02;;;;;;;125.47;16.45;;;;;;;;;;5000201;28;20129;-51
2023/04/29 00:59:31;;;;;;;65.43;12.63;;;;;;;;;;4981892;28;20415;-60
2023/04/29 01:02:01;;;;;;;59.15;12.18;;;;;;;;;;5000684;28;20068;-60
2023/04/29 01:04:29;;;;;;;131.13;17.58;;;;;;;;;;5006878;28;20042;-57
2023/04/29 01:07:21;;;;;;;36.63;11.75;;;;;;;;;;5001140;28;20072;-60
2023/04/29 01:10:02;;;;;;;98.45;14.10;;;;;;;;;;4994573;28;20054;-54
2023/04/29 01:12:36;;;;;;;70.10;12.15;;;;;;;;;;4983844;28;20052;-57
2023/04/29 01:15:03;;;;;;;;;;;;;;;;;;4979158;28;20528;-64
2023/04/29 01:17:30;;;;;;;81.15;13.20;;;;;;;;;;4986278;28;19917;-58
2023/04/29 01:19:59;;;;;;;61.60;12.02;;;;;;;;;;4981577;28;20088;-61
2023/04/29 01:22:26;;;;;;;94.60;14.15;;;;;;;;;;4996933;28;20034;-54
2023/04/29 01:24:53;;;;;;;70.72;12.75;;;;;;;;;;5016657;28;20049;-56
2023/04/29 01:27:26;;;;;;;92.22;14.45;;;;;;;;;;5015594;28;20042;-56
2023/04/29 01:30:06;;;;;;;95.13;14.68;;;;;;;;;;4982372;28;20049;-58
2023/04/29 01:32:53;;;;;;;77.93;13.75;;;;;;;;;;5001827;28;20495;-56
2023/04/29 01:35:28;;;;;;;66.72;11.77;;;;;;;;;;5013547;28;20046;-58
2023/04/29 01:38:01;;;;;;;69.05;12.40;;;;;;;;;;4988796;28;20045;-63
2023/04/29 01:40:42;;;;;;;59.80;11.43;;;;;;;;;;4997902;28;20499;-58
2023/04/29 01:43:14;;;;;;;147.10;16.98;;;;;;;;;;4982743;28;20761;-54
2023/04/29 01:45:45;;;;;;;112.60;14.98;;;;;;;;;;4989397;28;20057;-59
2023/04/29 01:48:14;;;;;;;83.05;12.95;;;;;;;;;;4990356;28;20055;-59
2023/04/29 01:50:40;;;;;;;127.03;16.13;;;;;;;;;;4986818;28;20038;-54
2023/04/29 01:53:10;;;;;;;123.00;16.13;;;;;;;;;;4992684;28;20046;-56
2023/04/29 01:55:37;;;;;;;68.13;11.60;;;;;;;;;;4988600;28;20038;-54
2023/04/29 01:58:30;;;;;;;73.25;12.60;;;;;;;;;;4941549;29;20474;-56
2023/04/29 02:01:15;;;;;;;277.50;26.23;;;;;;;;;;4960570;22;20155;-58
2023/04/29 02:03:42;;;;;;;92.35;13.18;;;;;;;;;;5019604;28;20518;-50
2023/04/29 02:06:10;;;;;;;95.53;14.00;;;;;;;;;;5011384;28;20609;-55
2023/04/29 02:08:37;;;;;;;159.43;18.38;;;;;;;;;;5012529;28;20037;-51
2023/04/29 02:11:03;;;;;;;91.63;13.98;;;;;;;;;;5013818;28;20053;-52
2023/04/29 02:13:33;;;;;;;80.28;12.50;;;;;;;;;;5013529;28;20095;-51
2023/04/29 02:16:10;;;;;;;142.98;16.42;;;;;;;;;;5011702;28;20104;-54
2023/04/29 02:18:52;;;;;;;85.47;13.10;;;;;;;;;;5011056;28;20084;-55
2023/04/29 02:21:20;;;;;;;93.45;13.18;;;;;;;;;;5021520;28;20368;-56
2023/04/29 02:23:46;;;;;;;67.70;11.38;;;;;;;;;;5021674;28;20046;-55
2023/04/29 02:26:14;;;;;;;130.40;14.70;;;;;;;;;;5023056;28;20053;-54
2023/04/29 02:28:41;;;;;;;94.88;12.98;;;;;;;;;;5012307;28;20099;-51
2023/04/29 02:31:07;;;;;;;83.00;11.80;;;;;;;;;;5013029;28;20037;-55
2023/04/29 02:33:34;;;;;;;64.43;11.35;;;;;;;;;;5012678;28;20630;-52
2023/04/29 02:36:01;;;;;;;106.93;13.82;;;;;;;;;;5020361;28;20156;-52
2023/04/29 02:38:28;;;;;;;74.93;11.48;;;;;;;;;;5025206;28;20072;-57
2023/04/29 02:40:54;;;;;;;81.18;12.13;;;;;;;;;;5011901;28;20137;-55
2023/04/29 02:43:21;;;;;;;138.65;16.02;;;;;;;;;;5012058;28;20041;-54
2023/04/29 02:45:47;;;;;;;36.42;9.02;;;;;;;;;;5012518;28;20125;-56
2023/04/29 02:48:14;;;;;;;92.43;12.73;;;;;;;;;;5025017;28;20037;-56
2023/04/29 02:50:41;;;;;;;157.55;16.73;;;;;;;;;;5010870;28;20041;-55
2023/04/29 02:53:08;;;;;;;104.85;13.07;;;;;;;;;;5012315;28;20156;-55
2023/04/29 02:55:34;;;;;;;81.07;11.57;;;;;;;;;;5009060;28;20113;-52
2023/04/29 02:58:06;;;;;;;108.93;14.25;;;;;;;;;;5028868;28;20395;-51
2023/04/29 03:00:32;;;;;;;56.50;10.15;;;;;;;;;;5008632;28;20038;-51
2023/04/29 03:02:59;;;;;;;84.43;11.93;;;;;;;;;;5029309;28;20064;-55
2023/04/29 03:05:26;;;;;;;99.20;13.57;;;;;;;;;;5009634;28;20045;-52
2023/04/29 03:07:53;;;;;;;55.33;10.75;;;;;;;;;;4996853;28;20049;-55
2023/04/29 03:10:20;;;;;;;72.07;10.48;;;;;;;;;;5024490;28;20447;-55
2023/04/29 03:12:46;;;;;;;141.13;16.00;;;;;;;;;;5025753;28;20478;-57
2023/04/29 03:15:14;;;;;;;82.50;12.20;;;;;;;;;;5011058;28;20068;-52
2023/04/29 03:17:41;;;;;;;76.78;10.85;;;;;;;;;;5010041;28;20121;-52
2023/04/29 03:20:09;;;;;;;226.40;21.55;;;;;;;;;;5028439;28;20453;-58
2023/04/29 03:22:36;;;;;;;81.78;12.20;;;;;;;;;;5030165;28;20045;-55
2023/04/29 03:25:03;;;;;;;82.45;12.07;;;;;;;;;;5020965;28;20441;-54
2023/04/29 03:27:29;;;;;;;130.55;14.40;;;;;;;;;;5003093;28;20157;-57
2023/04/29 03:29:56;;;;;;;62.00;10.57;;;;;;;;;;5021327;28;20096;-52
2023/04/29 03:32:23;;;;;;;93.20;12.80;;;;;;;;;;5027348;28;20053;-53
2023/04/29 03:34:50;;;;;;;124.80;14.65;;;;;;;;;;5010451;28;20054;-55
2023/04/29 03:37:39;;;;;;;92.43;12.20;;;;;;;;;;5023669;28;20085;-59
2023/04/29 03:40:22;;;;;;;47.53;8.88;;;;;;;;;;4997343;28;20495;-55
2023/04/29 03:42:49;;;;;;;63.72;10.02;;;;;;;;;;5009567;28;20046;-56
2023/04/29 03:45:16;;;;;;;148.18;16.17;;;;;;;;;;5009020;28;20042;-52
2023/04/29 03:47:43;;;;;;;84.28;11.55;;;;;;;;;;5009811;28;20043;-59
2023/04/29 03:50:10;;;;;;;102.57;12.45;;;;;;;;;;5026655;28;20048;-57
2023/04/29 03:52:38;;;;;;;120.78;13.50;;;;;;;;;;5028578;28;20061;-57
2023/04/29 03:55:11;;;;;;;70.05;10.60;;;;;;;;;;5007146;28;20042;-56
2023/04/29 03:57:38;;;;;;;65.40;9.80;;;;;;;;;;5022546;28;20064;-58
2023/04/29 04:00:08;;;;;;;148.00;15.40;;;;;;;;;;5007786;28;20050;-56
2023/04/29 04:02:47;;;;;;;73.40;10.68;;;;;;;;;;5025536;28;20057;-59
2023/04/29 04:05:14;;;;;;;177.35;17.55;;;;;;;;;;5027016;28;20137;-54
2023/04/29 04:07:46;;;;;;;61.85;9.88;;;;;;;;;;5018902;28;20069;-52
2023/04/29 04:10:31;;;;;;;125.25;13.45;;;;;;;;;;5025459;28;20418;-52
2023/04/29 04:13:00;;;;;;;61.58;9.43;;;;;;;;;;5011233;28;20130;-55
2023/04/29 04:15:27;;;;;;;86.53;11.73;;;;;;;;;;5010652;28;20452;-53
2023/04/29 04:17:53;;;;;;;140.00;14.82;;;;;;;;;;5019031;28;20045;-56
2023/04/29 04:20:20;;;;;;;73.47;10.32;;;;;;;;;;5011455;28;20068;-58
2023/04/29 04:22:48;;;;;;;65.80;10.52;;;;;;;;;;5012213;28;20136;-58
2023/04/29 04:25:19;;;;;;;147.27;15.25;;;;;;;;;;5006118;28;20488;-53
2023/04/29 04:27:46;;;;;;;82.90;10.88;;;;;;;;;;5002569;28;20053;-54
2023/04/29 04:30:23;;;;;;;67.10;10.02;;;;;;;;;;5000164;28;20084;-59
2023/04/29 04:32:49;;;;;;;68.30;10.68;;;;;;;;;;5018600;28;20049;-58
2023/04/29 04:35:16;;;;;;;100.80;12.27;;;;;;;;;;5027804;28;20049;-59
2023/04/29 04:37:43;;;;;;;112.05;13.38;;;;;;;;;;5009630;28;20111;-59
2023/04/29 04:40:10;;;;;;;99.63;12.32;;;;;;;;;;5018408;28;20132;-59
2023/04/29 04:42:55;;;;;;;61.92;9.73;;;;;;;;;;5005205;28;20046;-63
2023/04/29 04:45:21;;;;;;;89.18;11.32;;;;;;;;;;5016648;28;20073;-53
2023/04/29 04:47:49;;;;;;;52.38;8.60;;;;;;;;;;5024818;28;20296;-58
2023/04/29 04:50:20;;;;;;;110.43;13.88;;;;;;;;;;5019547;28;20684;-59
2023/04/29 04:52:48;;;;;;;71.90;9.82;;;;;;;;;;5011905;28;20057;-60
2023/04/29 04:55:36;;;;;;;93.97;11.20;;;;;;;;;;5012893;28;20084;-62
2023/04/29 04:58:02;;;;;;;72.05;9.68;;;;;;;;;;5010601;28;20080;-57
2023/04/29 05:00:29;;;;;;;51.80;8.82;;;;;;;;;;5010177;28;20041;-58
2023/04/29 05:02:56;;;;;;;60.83;9.00;;;;;;;;;;5023169;28;20451;-63
2023/04/29 05:05:23;;;;;;;116.22;12.10;;;;;;;;;;5025559;28;20095;-58
2023/04/29 05:07:50;;;;;;;62.72;8.68;;;;;;;;;;5009060;28;20349;-59
2023/04/29 05:10:25;;;;;;;67.97;8.90;;;;;;;;;;5006804;28;20133;-60
2023/04/29 05:12:54;;;;;;;52.65;8.98;;;;;;;;;;5009551;28;20132;-59
2023/04/29 05:15:21;;;;;;;70.28;9.60;;;;;;;;;;5019623;28;20120;-59
2023/04/29 05:17:50;;;;;;;133.98;13.13;;;;;;;;;;5006539;28;20109;-61
2023/04/29 05:20:16;;;;;;;80.65;10.18;;;;;;;;;;5010374;28;20083;-61
2023/04/29 05:22:43;;;;;;;65.90;9.05;;;;;;;;;;5026683;28;20049;-61
2023/04/29 05:25:11;;;;;;;138.55;16.40;;;;;;;;;;5009647;28;20076;-61
2023/04/29 05:27:38;;;;;;;79.97;9.70;;;;;;;;;;5019136;28;20072;-59
2023/04/29 05:30:09;;;;;;;82.80;9.82;;;;;;;;;;5013693;28;20041;-61
2023/04/29 05:32:36;;;;;;;126.60;12.70;;;;;;;;;;5005033;28;20095;-61
2023/04/29 05:35:05;;;;;;;65.78;8.55;;;;;;;;;;5006953;28;20037;-62
2023/04/29 05:37:33;;;;;;;93.60;10.32;;;;;;;;;;5008583;28;20057;-62
2023/04/29 05:40:15;;;;;;;81.30;9.23;;;;;;;;;;5002818;28;20042;-61
2023/04/29 05:42:42;;;;;;;81.40;10.43;;;;;;;;;;5014891;28;20041;-63
2023/04/29 05:45:11;;;;;;;101.00;10.55;;;;;;;;;;5014907;28;20068;-62
2023/04/29 05:47:37;;;;;;;59.80;8.48;;;;;;;;;;5008455;28;20446;-61
2023/04/29 05:50:05;;;;;;;81.22;10.10;;;;;;;;;;5026636;28;20041;-61
2023/04/29 05:52:31;;;;;;;168.30;14.90;;;;;;;;;;5009350;28;20532;-61
2023/04/29 05:54:58;;;;;;;78.53;8.73;;;;;;;;;;5022520;28;20099;-60
2023/04/29 05:57:25;;;;;;;76.97;8.93;;;;;;;;;;5013194;28;20054;-60
2023/04/29 05:59:54;;;;;;;137.52;13.00;;;;;;;;;;5001349;28;20053;-61
2023/04/29 06:02:21;;;;;;;93.20;9.85;;;;;;;;;;5022271;28;20062;-60
2023/04/29 06:04:48;;;;;;;76.82;8.82;;;;;;;;;;5023912;28;20690;-60
2023/04/29 06:07:39;;;;;;;81.82;9.85;;;;;;;;;;5016045;28;20053;-61
2023/04/29 06:10:28;;;;;;;132.25;13.25;;;;;;;;;;5011715;28;20053;-59
2023/04/29 06:12:55;;;;;;;69.78;8.38;;;;;;;;;;5016513;28;20076;-59
2023/04/29 06:15:22;;;;;;;51.38;7.22;;;;;;;;;;5008283;28;20124;-61
2023/04/29 06:17:48;;;;;;;162.32;14.55;;;;;;;;;;5005218;28;20049;-60
2023/04/29 06:20:15;;;;;;;118.10;11.60;;;;;;;;;;5007928;28;20132;-60
2023/04/29 06:22:43;;;;;;;101.43;10.85;;;;;;;;;;5009014;28;20160;-59
2023/04/29 06:25:10;;;;;;;157.50;15.52;;;;;;;;;;5024197;28;20052;-59
2023/04/29 06:27:55;;;;;;;121.30;11.82;;;;;;;;;;5018193;28;20077;-58
2023/04/29 06:30:25;;;;;;;131.32;12.77;;;;;;;;;;5019260;28;20622;-59
2023/04/29 06:32:53;;;;;;;95.05;10.75;;;;;;;;;;5013388;28;20057;-59
2023/04/29 06:35:19;;;;;;;97.95;10.85;;;;;;;;;;5025447;28;20448;-59
2023/04/29 06:38:08;;;;;;;72.63;8.70;;;;;;;;;;5011893;28;20041;-59
2023/04/29 06:40:43;;;;;;;89.63;9.98;;;;;;;;;;5026401;28;20053;-59
2023/04/29 06:43:35;;;;;;;67.93;8.73;;;;;;;;;;5007470;28;20455;-59
2023/04/29 06:46:20;;;;;;;62.10;7.97;;;;;;;;;;5028659;28;20053;-60
2023/04/29 06:49:07;;;;;;;80.55;9.05;;;;;;;;;;5027237;28;20058;-59
2023/04/29 06:51:35;;;;;;;121.93;10.52;;;;;;;;;;5029333;28;20480;-60
2023/04/29 06:54:02;;;;;;;69.50;8.50;;;;;;;;;;5012620;28;20065;-59
2023/04/29 06:56:29;;;;;;;85.38;9.27;;;;;;;;;;4997380;28;20080;-62
2023/04/29 06:58:55;;;;;;;84.20;9.13;;;;;;;;;;5026966;28;20560;-60
2023/04/29 07:01:22;;;;;;;45.53;6.68;;;;;;;;;;5027146;28;20057;-59
2023/04/29 07:03:49;;;;;;;78.13;9.98;;;;;;;;;;5022371;28;20136;-59
2023/04/29 07:06:17;;;;;;;59.80;8.05;;;;;;;;;;5023330;28;20037;-60
2023/04/29 07:08:44;;;;;;;89.18;9.45;;;;;;;;;;5012898;28;20069;-60
2023/04/29 07:11:12;;;;;;;104.90;11.02;;;;;;;;;;5013552;28;20422;-59
2023/04/29 07:13:38;;;;;;;58.97;7.70;;;;;;;;;;5030243;28;20076;-59
2023/04/29 07:16:13;;;;;;;106.80;10.80;;;;;;;;;;5026551;28;20076;-59
2023/04/29 07:18:39;;;;;;;51.30;7.03;;;;;;;;;;5026689;28;20045;-59
2023/04/29 07:21:07;;;;;;;63.00;7.75;;;;;;;;;;5028849;28;20049;-59
2023/04/29 07:23:34;;;;;;;51.92;6.85;;;;;;;;;;5013232;28;20402;-61
2023/04/29 07:26:17;;;;;;;69.68;8.10;;;;;;;;;;5013837;28;20053;-61
2023/04/29 07:28:44;;;;;;;;;;;;;;;;;;5029375;28;20050;-59
2023/04/29 07:31:11;;;;;;;51.60;7.55;;;;;;;;;;5019378;28;19948;-59
2023/04/29 07:33:38;;;;;;;86.07;9.43;;;;;;;;;;5024271;28;20030;-60
2023/04/29 07:36:06;;;;;;;74.10;8.38;;;;;;;;;;5010715;28;20107;-59
2023/04/29 07:38:33;;;;;;;66.93;7.60;;;;;;;;;;5011925;28;20064;-58
2023/04/29 07:41:05;;;;;;;72.65;8.25;;;;;;;;;;4996487;28;20458;-59
2023/04/29 07:43:32;;;;;;;74.00;7.72;;;;;;;;;;5028476;28;20092;-58
2023/04/29 07:45:59;;;;;;;85.13;8.73;;;;;;;;;;5023487;28;20145;-60
2023/04/29 07:48:25;;;;;;;70.63;7.93;;;;;;;;;;5009752;28;20052;-59
2023/04/29 07:50:52;;;;;;;60.20;6.97;;;;;;;;;;5027407;28;20056;-58
2023/04/29 07:53:19;;;;;;;112.70;10.23;;;;;;;;;;4996241;28;20126;-59
2023/04/29 07:55:46;;;;;;;101.10;9.10;;;;;;;;;;5020174;28;20526;-58
2023/04/29 07:58:12;;;;;;;98.97;9.65;;;;;;;;;;5028428;28;20045;-58
2023/04/29 08:00:39;;;;;;;104.35;9.75;;;;;;;;;;5008055;28;20095;-62
2023/04/29 08:03:06;;;;;;;95.07;9.05;;;;;;;;;;5011906;28;20049;-59
2023/04/29 08:05:33;;;;;;;92.45;9.55;;;;;;;;;;5008410;28;20100;-60
2023/04/29 08:08:00;;;;;;;66.13;7.90;;;;;;;;;;5012967;28;20060;-59
2023/04/29 08:10:26;;;;;;;66.25;7.38;;;;;;;;;;5008329;28;20476;-61
2023/04/29 08:12:53;;;;;;;114.95;10.07;;;;;;;;;;5000949;28;20099;-59
2023/04/29 08:15:20;;;;;;;82.00;8.60;;;;;;;;;;5000427;28;20046;-60
2023/04/29 08:17:47;;;;;;;74.55;8.30;;;;;;;;;;5027080;28;20137;-60
2023/04/29 08:20:14;;;;;;;140.15;13.43;;;;;;;;;;5028092;28;20740;-61
2023/04/29 08:22:41;;;;;;;67.75;7.75;;;;;;;;;;5023691;28;20128;-59
2023/04/29 08:25:08;;;;;;;57.75;6.50;;;;;;;;;;5011634;28;20049;-60
2023/04/29 08:27:34;;;;;;;91.93;8.93;;;;;;;;;;5022874;28;20073;-61
2023/04/29 08:30:01;;;;;;;54.67;5.93;;;;;;;;;;5026246;28;20045;-60
2023/04/29 08:32:28;;;;;;;70.38;7.05;;;;;;;;;;5027050;28;20046;-60
2023/04/29 08:34:55;;;;;;;88.95;8.82;;;;;;;;;;5009720;28;20077;-60
2023/04/29 08:37:21;;;;;;;55.28;6.32;;;;;;;;;;5011317;28;20049;-59
2023/04/29 08:39:48;;;;;;;102.25;8.70;;;;;;;;;;5026132;28;20038;-60
2023/04/29 08:42:16;;;;;;;85.82;8.13;;;;;;;;;;5028093;28;20045;-61
2023/04/29 08:44:43;;;;;;;144.32;11.80;;;;;;;;;;5010338;28;20487;-60
2023/04/29 08:47:09;;;;;;;94.82;8.35;;;;;;;;;;5009220;28;20136;-59
2023/04/29 08:49:37;;;;;;;91.05;8.73;;;;;;;;;;5023726;28;20046;-60
2023/04/29 08:52:04;;;;;;;88.18;8.05;;;;;;;;;;5024793;28;20065;-60
2023/04/29 08:54:31;;;;;;;113.75;9.38;;;;;;;;;;5025359;28;20112;-60
2023/04/29 08:56:58;;;;;;;79.57;8.05;;;;;;;;;;5007809;28;20061;-59
2023/04/29 08:59:26;;;;;;;98.70;9.00;;;;;;;;;;5027359;28;20123;-61
2023/04/29 09:01:53;;;;;;;78.97;7.82;;;;;;;;;;5028517;28;20132;-59
2023/04/29 09:04:31;;;;;;;82.93;7.80;;;;;;;;;;5024628;28;20450;-60
2023/04/29 09:06:58;;;;;;;101.65;9.25;;;;;;;;;;5019919;28;20052;-60
2023/04/29 09:09:24;;;;;;;78.22;7.72;;;;;;;;;;5021912;28;20029;-60
2023/04/29 09:11:52;;;;;;;60.70;5.72;;;;;;;;;;5019214;28;20049;-60
2023/04/29 09:14:19;;;;;;;116.45;10.50;;;;;;;;;;5020541;28;20073;-59
2023/04/29 09:16:46;;;;;;;56.45;6.28;;;;;;;;;;5024802;28;20140;-59
2023/04/29 09:19:29;;;;;;;77.30;7.68;;;;;;;;;;5027250;28;20041;-59
2023/04/29 09:21:56;;;;;;;99.53;9.07;;;;;;;;;;5024866;28;20041;-59
2023/04/29 09:24:26;;;;;;;70.80;6.60;;;;;;;;;;5023631;28;20033;-59
2023/04/29 09:26:53;;;;;;;97.88;8.90;;;;;;;;;;5026014;28;20442;-60
2023/04/29 09:29:20;;;;;;;98.72;9.60;;;;;;;;;;5010718;28;20045;-60
2023/04/29 09:31:47;;;;;;;75.22;7.47;;;;;;;;;;5024585;28;20048;-60
2023/04/29 09:34:15;;;;;;;62.10;7.15;;;;;;;;;;5026164;28;20065;-60
2023/04/29 09:36:46;;;;;;;57.40;6.20;;;;;;;;;;5006873;28;20072;-59
2023/04/29 09:39:16;;;;;;;80.50;7.75;;;;;;;;;;4998945;28;20151;-62
2023/04/29 09:41:49;;;;;;;98.85;9.07;;;;;;;;;;5024587;28;20140;-61
2023/04/29 09:44:16;;;;;;;83.18;8.50;;;;;;;;;;5007273;28;20663;-61
2023/04/29 09:46:42;;;;;;;58.38;6.07;;;;;;;;;;5023468;28;20037;-63
2023/04/29 09:49:25;;;;;;;58.55;6.22;;;;;;;;;;5024048;28;20128;-60
2023/04/29 09:51:59;;;;;;;82.32;7.97;;;;;;;;;;4999020;28;20045;-59
2023/04/29 09:54:27;;;;;;;90.45;10.50;;;;;;;;;;5009351;28;20046;-60
2023/04/29 09:56:54;;;;;;;161.90;12.30;;;;;;;;;;5027302;28;20080;-60
2023/04/29 09:59:21;;;;;;;120.47;10.95;;;;;;;;;;5009808;28;20076;-62
2023/04/29 10:01:49;;;;;;;74.70;7.25;;;;;;;;;;5017024;28;20136;-59
2023/04/29 10:04:16;;;;;;;66.07;6.95;;;;;;;;;;5022018;28;20045;-59
2023/04/29 10:06:44;;;;;;;72.28;7.18;;;;;;;;;;5023177;28;20050;-62
2023/04/29 10:09:15;;;;;;;38.28;5.43;;;;;;;;;;5027343;28;20125;-61
2023/04/29 10:11:42;;;;;;;114.85;9.82;;;;;;;;;;5031330;28;20483;-60
2023/04/29 10:14:13;;;;;;;85.07;8.45;;;;;;;;;;5031161;28;20136;-61
2023/04/29 10:16:48;;;;;;;84.00;8.52;;;;;;;;;;5031525;28;20487;-59
2023/04/29 10:19:18;;;;;;;79.35;7.78;;;;;;;;;;5013781;28;20065;-60
2023/04/29 10:21:47;;;;;;;79.93;8.57;;;;;;;;;;5013775;28;20384;-60
2023/04/29 10:24:16;;;;;;;80.60;8.55;;;;;;;;;;5028664;28;20077;-59
2023/04/29 10:26:43;;;;;;;59.35;6.50;;;;;;;;;;5029960;28;20041;-60
2023/04/29 10:29:10;;;;;;;120.28;10.05;;;;;;;;;;5013951;28;20042;-60
2023/04/29 10:31:37;;;;;;;95.28;8.77;;;;;;;;;;5029947;28;20045;-59
2023/04/29 10:34:04;;;;;;;81.82;7.80;;;;;;;;;;5030294;28;20045;-59
2023/04/29 10:36:30;;;;;;;109.22;9.77;;;;;;;;;;5009359;28;20053;-59
2023/04/29 10:38:58;;;;;;;81.93;7.90;;;;;;;;;;5024865;28;20187;-60
2023/04/29 10:41:26;;;;;;;91.80;8.80;;;;;;;;;;5026174;28;20049;-61
2023/04/29 10:43:52;;;;;;;148.43;12.57;;;;;;;;;;5016016;28;20049;-60
2023/04/29 10:46:20;;;;;;;97.45;9.07;;;;;;;;;;5011836;28;20411;-61
2023/04/29 10:48:47;;;;;;;89.90;8.63;;;;;;;;;;5025898;28;20651;-60
2023/04/29 10:51:40;;;;;;;112.95;10.55;;;;;;;;;;5021059;28;20054;-60
2023/04/29 10:54:07;;;;;;;76.82;7.00;;;;;;;;;;5002480;28;20454;-59
2023/04/29 10:56:53;;;;;;;109.30;9.57;;;;;;;;;;5030370;28;20053;-60
2023/04/29 10:59:32;;;;;;;121.65;10.52;;;;;;;;;;5023370;28;20049;-60
2023/04/29 11:02:00;;;;;;;61.80;6.50;;;;;;;;;;5002410;28;20407;-60
2023/04/29 11:04:30;;;;;;;108.82;10.15;;;;;;;;;;5015457;28;20045;-60
2023/04/29 11:06:58;;;;;;;93.80;9.15;;;;;;;;;;5012340;28;20191;-60
2023/04/29 11:09:28;;;;;;;59.95;6.40;;;;;;;;;;5011011;28;20104;-59
2023/04/29 11:11:57;;;;;;;52.40;6.15;;;;;;;;;;5012971;28;20045;-61
2023/04/29 11:14:25;;;;;;;151.77;13.80;;;;;;;;;;5022301;28;20053;-61
2023/04/29 11:16:53;;;;;;;60.67;6.85;;;;;;;;;;5028367;28;20041;-62
2023/04/29 11:19:22;;;;;;;85.10;9.18;;;;;;;;;;5029614;28;20052;-59
2023/04/29 11:22:02;;;;;;;109.85;9.20;;;;;;;;;;5025159;28;20053;-60
2023/04/29 11:24:28;;;;;;;91.57;8.70;;;;;;;;;;5023557;28;20522;-60
2023/04/29 11:26:58;;;;;;;95.35;8.63;;;;;;;;;;5029098;28;20051;-60
2023/04/29 11:29:27;;;;;;;124.00;11.00;;;;;;;;;;5021850;28;20049;-60
2023/04/29 11:32:02;;;;;;;86.20;8.70;;;;;;;;;;5013605;28;20049;-60
2023/04/29 11:34:29;;;;;;;83.53;8.05;;;;;;;;;;5027153;28;20069;-60
2023/04/29 11:36:56;;;;;;;92.03;8.15;;;;;;;;;;5012561;28;20045;-59
2023/04/29 11:39:22;;;;;;;70.30;7.07;;;;;;;;;;5026342;28;20042;-60
2023/04/29 11:41:49;;;;;;;64.30;6.72;;;;;;;;;;5028724;28;20390;-60
2023/04/29 11:44:21;;;;;;;108.10;9.60;;;;;;;;;;5010418;28;20052;-60
2023/04/29 11:46:55;;;;;;;100.57;8.73;;;;;;;;;;5011311;28;20426;-60
2023/04/29 11:49:28;;;;;;;71.65;6.95;;;;;;;;;;5028347;28;20038;-60
2023/04/29 11:51:55;;;;;;;78.45;7.85;;;;;;;;;;5019187;28;20056;-60
2023/04/29 11:54:27;;;;;;;94.28;9.35;;;;;;;;;;5025353;28;20053;-59
2023/04/29 11:56:54;;;;;;;58.92;6.65;;;;;;;;;;5009180;28;20053;-60
2023/04/29 11:59:21;;;;;;;104.13;9.52;;;;;;;;;;5009800;28;20092;-60
2023/04/29 12:01:51;;;;;;;61.00;6.53;;;;;;;;;;5028765;28;20111;-60
2023/04/29 12:04:21;;;;;;;185.98;15.95;;;;;;;;;;5011429;28;20091;-59
2023/04/29 12:06:50;;;;;;;132.70;11.43;;;;;;;;;;5024786;28;20041;-61
2023/04/29 12:09:18;;;;;;;77.00;9.38;;;;;;;;;;5028859;28;20042;-60
2023/04/29 12:11:45;;;;;;;94.50;13.85;;;;;;;;;;5029670;28;20038;-60
2023/04/29 12:14:13;;;;;;;104.95;14.48;;;;;;;;;;5023453;28;20108;-59
2023/04/29 12:16:39;;;;;;;93.18;13.85;;;;;;;;;;5024704;28;20049;-60
2023/04/29 12:19:06;;;;;;;71.97;8.23;;;;;;;;;;5025280;28;20045;-61
2023/04/29 12:21:33;;;;;;;95.65;12.57;;;;;;;;;;5010298;28;20045;-60
2023/04/29 12:24:01;;;;;;;77.13;10.55;;;;;;;;;;5028292;28;20069;-60
2023/04/29 12:26:29;;;;;;;110.68;13.43;;;;;;;;;;5020549;28;20095;-60
2023/04/29 12:28:57;;;;;;;95.18;15.23;;;;;;;;;;5013195;28;20060;-60
2023/04/29 12:31:31;;;;;;;73.43;8.35;;;;;;;;;;5007396;28;20053;-59
2023/04/29 12:33:57;;;;;;;112.30;14.85;;;;;;;;;;5023367;28;20444;-60
2023/04/29 12:36:24;;;;;;;92.30;16.30;;;;;;;;;;5025463;28;20113;-60
2023/04/29 12:38:53;;;;;;;257.23;23.23;;;;;;;;;;5027730;28;20048;-60
2023/04/29 12:41:35;;;;;;;86.30;8.73;;;;;;;;;;5011423;28;20045;-60
2023/04/29 12:44:03;;;;;;;81.72;11.75;;;;;;;;;;5028621;28;20490;-59
2023/04/29 12:46:33;;;;;;;98.65;16.98;;;;;;;;;;5027986;28;20041;-60
2023/04/29 12:49:01;;;;;;;79.38;9.50;;;;;;;;;;5025893;28;20088;-59
2023/04/29 12:51:28;;;;;;;80.68;12.30;;;;;;;;;;5028594;28;20533;-60
2023/04/29 12:53:54;;;;;;;53.60;8.25;;;;;;;;;;5026934;28;20546;-59
2023/04/29 12:56:21;;;;;;;127.47;16.95;;;;;;;;;;5024326;28;20499;-60
2023/04/29 12:58:48;;;;;;;68.38;9.45;;;;;;;;;;5026002;28;20053;-61
2023/04/29 13:01:16;;;;;;;129.15;13.00;;;;;;;;;;5009989;28;20057;-60
2023/04/29 13:03:44;;;;;;;110.60;10.00;;;;;;;;;;5023997;28;20065;-60
2023/04/29 13:06:16;;;;;;;54.87;7.67;;;;;;;;;;5023718;28;20117;-59
2023/04/29 13:08:43;;;;;;;106.05;11.70;;;;;;;;;;5025207;28;20518;-60
2023/04/29 13:11:12;;;;;;;100.93;9.82;;;;;;;;;;5009834;28;20053;-59
2023/04/29 13:13:39;;;;;;;98.75;10.60;;;;;;;;;;5022437;28;20045;-59
2023/04/29 13:16:06;;;;;;;61.42;7.13;;;;;;;;;;5022153;28;20395;-59
2023/04/29 13:18:34;;;;;;;121.53;10.80;;;;;;;;;;5023529;28;20034;-59
2023/04/29 13:21:02;;;;;;;51.38;8.75;;;;;;;;;;5027111;28;20045;-60
2023/04/29 13:23:28;;;;;;;122.65;10.75;;;;;;;;;;5026519;28;20495;-59
2023/04/29 13:25:55;;;;;;;86.00;8.30;;;;;;;;;;5024411;28;20101;-60
2023/04/29 13:28:22;;;;;;;93.20;10.32;;;;;;;;;;5006045;28;20054;-59
2023/04/29 13:30:49;;;;;;;80.60;8.30;;;;;;;;;;5022130;28;20057;-59
2023/04/29 13:33:16;;;;;;;51.88;8.60;;;;;;;;;;5023511;28;20499;-60
2023/04/29 13:35:44;;;;;;;72.07;8.32;;;;;;;;;;5028747;28;20064;-59
2023/04/29 13:38:11;;;;;;;34.17;5.32;;;;;;;;;;5028637;28;20045;-63
2023/04/29 13:40:37;;;;;;;62.97;7.88;;;;;;;;;;5030330;28;20057;-60
2023/04/29 13:43:11;;;;;;;38.42;6.57;;;;;;;;;;5028644;28;20033;-59
2023/04/29 13:45:43;;;;;;;48.78;5.53;;;;;;;;;;5007550;28;20061;-58
2023/04/29 13:48:13;;;;;;;25.38;5.10;;;;;;;;;;5023360;28;20045;-60
2023/04/29 13:50:59;;;;;;;33.05;5.15;;;;;;;;;;5010394;28;20080;-58
2023/04/29 13:53:29;;;;;;;44.60;6.30;;;;;;;;;;5026708;28;20179;-59
2023/04/29 13:55:58;;;;;;;50.00;6.38;;;;;;;;;;5027423;28;20124;-58
2023/04/29 13:58:28;;;;;;;30.98;5.07;;;;;;;;;;5027656;28;20049;-61
2023/04/29 14:00:57;;;;;;;72.63;7.18;;;;;;;;;;5023399;28;20045;-59
2023/04/29 14:03:44;;;;;;;37.95;5.10;;;;;;;;;;5011884;28;20109;-59
2023/04/29 14:06:11;;;;;;;70.85;7.53;;;;;;;;;;4994778;28;20139;-58
2023/04/29 14:08:38;;;;;;;156.68;10.65;;;;;;;;;;5013046;28;20072;-59
2023/04/29 14:11:04;;;;;;;30.90;4.97;;;;;;;;;;5019750;28;20045;-58
2023/04/29 14:13:31;;;;;;;23.08;4.43;;;;;;;;;;5028046;28;20057;-59
2023/04/29 14:15:58;;;;;;;22.60;4.50;;;;;;;;;;5027207;28;20041;-59
2023/04/29 14:18:26;;;;;;;74.10;7.85;;;;;;;;;;5011031;28;20594;-59
2023/04/29 14:20:53;;;;;;;100.00;9.63;;;;;;;;;;5030644;28;20124;-59
2023/04/29 14:23:20;;;;;;;113.72;11.15;;;;;;;;;;5012642;28;20124;-58
2023/04/29 14:25:47;;;;;;;100.80;11.00;;;;;;;;;;5023347;28;20049;-59
2023/04/29 14:28:13;;;;;;;38.67;5.50;;;;;;;;;;5024083;28;20125;-60
2023/04/29 14:30:42;;;;;;;48.70;6.47;;;;;;;;;;5025211;28;20042;-60
2023/04/29 14:33:11;;;;;;;22.55;4.25;;;;;;;;;;5011943;28;20487;-60